createdAt,value
2022-08-09T00:00:39.000Z,0
2022-08-09T00:01:54.000Z,0
2022-08-09T00:03:11.000Z,0
2022-08-09T00:05:43.000Z,0
2022-08-09T00:06:59.000Z,0
2022-08-09T00:08:16.000Z,0
2022-08-09T00:09:32.000Z,0
2022-08-09T00:10:48.000Z,0
2022-08-09T00:12:05.000Z,0
2022-08-09T00:13:21.000Z,0
2022-08-09T00:14:37.000Z,0
2022-08-09T00:15:53.000Z,0
2022-08-09T00:18:26.000Z,0
2022-08-09T00:19:41.000Z,0
2022-08-09T00:20:58.000Z,0
2022-08-09T00:22:14.000Z,0
2022-08-09T00:23:30.000Z,0
2022-08-09T00:24:47.000Z,0
2022-08-09T00:26:03.000Z,0
2022-08-09T00:27:19.000Z,0
2022-08-09T00:28:35.000Z,0
2022-08-09T00:29:52.000Z,0
2022-08-09T00:31:08.000Z,0
2022-08-09T00:32:24.000Z,0
2022-08-09T00:33:41.000Z,0
2022-08-09T00:34:57.000Z,0
2022-08-09T00:36:12.000Z,0
2022-08-09T00:37:28.000Z,0
2022-08-09T00:38:45.000Z,0
2022-08-09T00:40:01.000Z,0
2022-08-09T00:41:17.000Z,0
2022-08-09T00:42:34.000Z,0
2022-08-09T00:43:50.000Z,0
2022-08-09T00:45:06.000Z,0
2022-08-09T00:46:22.000Z,0
2022-08-09T00:47:39.000Z,0
2022-08-09T00:50:11.000Z,0
2022-08-09T00:51:28.000Z,0
2022-08-09T00:52:43.000Z,0
2022-08-09T00:53:59.000Z,0
2022-08-09T00:56:32.000Z,0
2022-08-09T00:57:48.000Z,0
2022-08-09T00:59:04.000Z,0
2022-08-09T01:00:21.000Z,0
2022-08-09T01:01:37.000Z,0
2022-08-09T01:02:53.000Z,0
2022-08-09T01:04:09.000Z,0
2022-08-09T01:05:26.000Z,0
2022-08-09T01:06:42.000Z,0
2022-08-09T01:09:15.000Z,0
2022-08-09T01:10:30.000Z,0
2022-08-09T01:11:45.000Z,0
2022-08-09T01:13:01.000Z,0
2022-08-09T01:14:18.000Z,0
2022-08-09T01:15:34.000Z,0
2022-08-09T01:16:50.000Z,0
2022-08-09T01:18:07.000Z,0
2022-08-09T01:19:23.000Z,0
2022-08-09T01:20:39.000Z,0
2022-08-09T01:23:12.000Z,0
2022-08-09T01:24:28.000Z,0
2022-08-09T01:25:44.000Z,0
2022-08-09T01:27:01.000Z,0
2022-08-09T01:28:16.000Z,0
2022-08-09T01:29:32.000Z,0
2022-08-09T01:30:49.000Z,0
2022-08-09T01:32:05.000Z,0
2022-08-09T01:33:21.000Z,0
2022-08-09T01:34:37.000Z,0
2022-08-09T01:35:54.000Z,0
2022-08-09T01:37:10.000Z,0
2022-08-09T01:38:25.000Z,0
2022-08-09T01:39:41.000Z,0
2022-08-09T01:40:57.000Z,0
2022-08-09T01:42:13.000Z,0
2022-08-09T01:43:29.000Z,0
2022-08-09T01:47:18.000Z,0
2022-08-09T01:48:35.000Z,0
2022-08-09T01:49:51.000Z,0
2022-08-09T01:51:07.000Z,0
2022-08-09T01:52:23.000Z,0
2022-08-09T01:53:40.000Z,0
2022-08-09T01:54:55.000Z,0
2022-08-09T01:56:10.000Z,0
2022-08-09T01:57:27.000Z,0
2022-08-09T01:58:43.000Z,0
2022-08-09T01:59:59.000Z,0
2022-08-09T02:01:15.000Z,0
2022-08-09T02:02:32.000Z,0
2022-08-09T02:03:48.000Z,0
2022-08-09T02:05:04.000Z,0
2022-08-09T02:06:21.000Z,0
2022-08-09T02:07:37.000Z,0
2022-08-09T02:08:52.000Z,0
2022-08-09T02:10:08.000Z,0
2022-08-09T02:12:40.000Z,0
2022-08-09T02:13:56.000Z,0
2022-08-09T02:15:13.000Z,0
2022-08-09T02:16:29.000Z,0
2022-08-09T02:19:02.000Z,0
2022-08-09T02:20:18.000Z,0
2022-08-09T02:21:33.000Z,0
2022-08-09T02:22:49.000Z,0
2022-08-09T02:25:22.000Z,0
2022-08-09T02:26:37.000Z,0
2022-08-09T02:27:53.000Z,0
2022-08-09T02:29:09.000Z,0
2022-08-09T02:30:25.000Z,0
2022-08-09T02:31:41.000Z,0
2022-08-09T02:32:58.000Z,0
2022-08-09T02:34:14.000Z,0
2022-08-09T02:35:30.000Z,0
2022-08-09T02:36:47.000Z,0
2022-08-09T02:38:03.000Z,0
2022-08-09T02:39:19.000Z,0
2022-08-09T02:40:35.000Z,0
2022-08-09T02:41:50.000Z,0
2022-08-09T02:43:06.000Z,0
2022-08-09T02:44:22.000Z,0
2022-08-09T02:45:39.000Z,0
2022-08-09T02:46:55.000Z,0
2022-08-09T02:48:11.000Z,0
2022-08-09T02:49:28.000Z,0
2022-08-09T02:50:44.000Z,0
2022-08-09T02:52:00.000Z,0
2022-08-09T02:53:16.000Z,0
2022-08-09T02:54:33.000Z,0
2022-08-09T02:55:49.000Z,0
2022-08-09T02:57:05.000Z,0
2022-08-09T02:58:22.000Z,0
2022-08-09T02:59:37.000Z,0
2022-08-09T03:00:53.000Z,0
2022-08-09T03:03:26.000Z,0
2022-08-09T03:04:42.000Z,0
2022-08-09T03:05:58.000Z,0
2022-08-09T03:07:15.000Z,0
2022-08-09T03:08:31.000Z,0
2022-08-09T03:09:47.000Z,0
2022-08-09T03:11:03.000Z,0
2022-08-09T03:12:20.000Z,0
2022-08-09T03:13:36.000Z,0
2022-08-09T03:16:09.000Z,0
2022-08-09T03:17:25.000Z,0
2022-08-09T03:18:40.000Z,0
2022-08-09T03:19:56.000Z,0
2022-08-09T03:21:13.000Z,0
2022-08-09T03:22:29.000Z,0
2022-08-09T03:23:45.000Z,0
2022-08-09T03:25:02.000Z,0
2022-08-09T03:26:18.000Z,0
2022-08-09T03:27:34.000Z,0
2022-08-09T03:28:50.000Z,0
2022-08-09T03:30:07.000Z,0
2022-08-09T03:31:23.000Z,0
2022-08-09T03:32:39.000Z,0
2022-08-09T03:33:55.000Z,0
2022-08-09T03:35:11.000Z,0
2022-08-09T03:36:27.000Z,0
2022-08-09T03:37:43.000Z,0
2022-08-09T03:38:59.000Z,0
2022-08-09T03:41:32.000Z,0
2022-08-09T03:42:48.000Z,0
2022-08-09T03:44:04.000Z,0
2022-08-09T03:45:21.000Z,0
2022-08-09T03:46:37.000Z,0
2022-08-09T03:47:53.000Z,0
2022-08-09T03:49:09.000Z,0
2022-08-09T03:50:26.000Z,0
2022-08-09T03:51:41.000Z,0
2022-08-09T03:52:57.000Z,0
2022-08-09T03:54:13.000Z,0
2022-08-09T03:55:30.000Z,0
2022-08-09T03:56:46.000Z,0
2022-08-09T03:58:02.000Z,0
2022-08-09T03:59:18.000Z,0
2022-08-09T04:00:34.000Z,0
2022-08-09T04:01:51.000Z,0
2022-08-09T04:03:07.000Z,0
2022-08-09T04:04:23.000Z,0
2022-08-09T04:06:56.000Z,0
2022-08-09T04:08:11.000Z,0
2022-08-09T04:09:27.000Z,5
2022-08-09T04:10:43.000Z,5
2022-08-09T04:12:00.000Z,5
2022-08-09T04:13:16.000Z,5
2022-08-09T04:14:32.000Z,5
2022-08-09T04:15:48.000Z,5
2022-08-09T04:17:05.000Z,5
2022-08-09T04:19:37.000Z,5
2022-08-09T04:20:53.000Z,5
2022-08-09T04:22:09.000Z,11
2022-08-09T04:23:26.000Z,11
2022-08-09T04:24:41.000Z,11
2022-08-09T04:25:57.000Z,11
2022-08-09T04:27:13.000Z,11
2022-08-09T04:28:30.000Z,11
2022-08-09T04:29:46.000Z,11
2022-08-09T04:31:02.000Z,11
2022-08-09T04:32:18.000Z,16
2022-08-09T04:33:35.000Z,16
2022-08-09T04:34:51.000Z,16
2022-08-09T04:36:07.000Z,16
2022-08-09T04:37:23.000Z,16
2022-08-09T04:38:40.000Z,16
2022-08-09T04:39:56.000Z,22
2022-08-09T04:41:11.000Z,22
2022-08-09T04:42:27.000Z,22
2022-08-09T04:45:00.000Z,22
2022-08-09T04:46:16.000Z,22
2022-08-09T04:47:32.000Z,28
2022-08-09T04:48:48.000Z,28
2022-08-09T04:50:05.000Z,28
2022-08-09T04:51:21.000Z,28
2022-08-09T04:52:37.000Z,28
2022-08-09T04:53:53.000Z,28
2022-08-09T04:55:10.000Z,33
2022-08-09T04:56:26.000Z,33
2022-08-09T04:57:41.000Z,33
2022-08-09T04:58:57.000Z,33
2022-08-09T05:00:14.000Z,33
2022-08-09T05:01:30.000Z,33
2022-08-09T05:02:46.000Z,39
2022-08-09T05:04:02.000Z,39
2022-08-09T05:05:18.000Z,39
2022-08-09T05:06:35.000Z,39
2022-08-09T05:07:51.000Z,39
2022-08-09T05:10:23.000Z,45
2022-08-09T05:11:40.000Z,45
2022-08-09T05:12:56.000Z,45
2022-08-09T05:14:11.000Z,45
2022-08-09T05:15:27.000Z,45
2022-08-09T05:16:44.056Z,45
2022-08-09T05:18:00.000Z,45
2022-08-09T05:19:16.000Z,50
2022-08-09T05:20:32.000Z,50
2022-08-09T05:23:05.000Z,50
2022-08-09T05:24:21.000Z,50
2022-08-09T05:25:37.000Z,50
2022-08-09T05:26:53.000Z,50
2022-08-09T05:28:10.000Z,56
2022-08-09T05:29:26.000Z,56
2022-08-09T05:30:41.000Z,56
2022-08-09T05:33:14.000Z,56
2022-08-09T05:35:45.000Z,56
2022-08-09T05:37:00.000Z,56
2022-08-09T05:38:16.000Z,61
2022-08-09T05:39:32.000Z,61
2022-08-09T05:40:48.000Z,61
2022-08-09T05:42:04.000Z,61
2022-08-09T05:43:21.000Z,61
2022-08-09T05:44:37.000Z,61
2022-08-09T05:45:53.000Z,61
2022-08-09T05:47:09.000Z,67
2022-08-09T05:48:25.000Z,67
2022-08-09T05:49:42.000Z,67
2022-08-09T05:50:57.000Z,67
2022-08-09T05:52:12.000Z,67
2022-08-09T05:53:28.000Z,67
2022-08-09T05:54:45.000Z,73
2022-08-09T05:56:01.000Z,73
2022-08-09T05:57:17.000Z,73
2022-08-09T05:58:33.000Z,73
2022-08-09T05:59:50.000Z,73
2022-08-09T06:01:06.000Z,73
2022-08-09T06:02:22.000Z,73
2022-08-09T06:03:38.000Z,78
2022-08-09T06:04:55.000Z,78
2022-08-09T06:06:11.000Z,78
2022-08-09T06:07:27.000Z,78
2022-08-09T06:08:42.000Z,78
2022-08-09T06:09:58.000Z,78
2022-08-09T06:11:15.000Z,78
2022-08-09T06:13:47.000Z,84
2022-08-09T06:15:03.000Z,84
2022-08-09T06:16:20.000Z,90
2022-08-09T06:17:36.000Z,90
2022-08-09T06:18:52.000Z,95
2022-08-09T06:20:08.000Z,95
2022-08-09T06:21:25.000Z,95
2022-08-09T06:22:41.000Z,95
2022-08-09T06:23:57.000Z,95
2022-08-09T06:25:12.000Z,95
2022-08-09T06:26:29.000Z,95
2022-08-09T06:27:45.000Z,101
2022-08-09T06:29:01.000Z,101
2022-08-09T06:30:17.000Z,101
2022-08-09T06:31:33.000Z,101
2022-08-09T06:32:50.000Z,95
2022-08-09T06:34:06.000Z,95
2022-08-09T06:35:22.000Z,95
2022-08-09T06:36:37.000Z,95
2022-08-09T06:39:10.000Z,101
2022-08-09T06:40:26.000Z,101
2022-08-09T06:41:42.000Z,101
2022-08-09T06:42:59.000Z,101
2022-08-09T06:44:15.000Z,101
2022-08-09T06:45:31.000Z,101
2022-08-09T06:46:47.000Z,101
2022-08-09T06:48:04.000Z,101
2022-08-09T06:49:20.000Z,101
2022-08-09T06:51:52.000Z,101
2022-08-09T06:53:07.000Z,106
2022-08-09T06:54:24.000Z,106
2022-08-09T06:55:40.000Z,106
2022-08-09T06:56:56.000Z,106
2022-08-09T06:58:12.000Z,106
2022-08-09T06:59:29.000Z,106
2022-08-09T07:00:45.000Z,106
2022-08-09T07:02:01.000Z,112
2022-08-09T07:03:17.000Z,112
2022-08-09T07:04:34.000Z,112
2022-08-09T07:05:50.000Z,112
2022-08-09T07:07:06.000Z,112
2022-08-09T07:08:22.000Z,112
2022-08-09T07:10:54.000Z,112
2022-08-09T07:12:10.000Z,118
2022-08-09T07:13:26.000Z,118
2022-08-09T07:14:42.000Z,118
2022-08-09T07:15:59.000Z,123
2022-08-09T07:17:15.000Z,123
2022-08-09T07:18:31.000Z,123
2022-08-09T07:19:47.000Z,123
2022-08-09T07:21:04.000Z,123
2022-08-09T07:22:20.000Z,123
2022-08-09T07:23:36.000Z,123
2022-08-09T07:24:52.000Z,123
2022-08-09T07:26:08.000Z,123
2022-08-09T07:27:24.000Z,129
2022-08-09T07:31:12.000Z,129
2022-08-09T07:32:28.000Z,135
2022-08-09T07:33:43.000Z,135
2022-08-09T07:34:59.000Z,140
2022-08-09T07:36:15.000Z,135
2022-08-09T07:37:32.000Z,140
2022-08-09T07:38:48.000Z,140
2022-08-09T07:40:04.000Z,140
2022-08-09T07:43:53.000Z,140
2022-08-09T07:45:09.000Z,140
2022-08-09T07:46:25.000Z,146
2022-08-09T07:47:42.000Z,151
2022-08-09T07:48:57.000Z,151
2022-08-09T07:50:12.000Z,157
2022-08-09T07:51:28.000Z,157
2022-08-09T07:52:45.000Z,163
2022-08-09T07:54:01.000Z,163
2022-08-09T07:55:17.000Z,163
2022-08-09T07:56:33.000Z,168
2022-08-09T07:57:49.000Z,163
2022-08-09T08:00:22.000Z,163
2022-08-09T08:01:38.000Z,157
2022-08-09T08:02:54.000Z,157
2022-08-09T08:04:11.000Z,157
2022-08-09T08:05:27.000Z,157
2022-08-09T08:07:58.000Z,163
2022-08-09T08:09:15.000Z,163
2022-08-09T08:10:31.000Z,163
2022-08-09T08:11:47.000Z,163
2022-08-09T08:13:03.000Z,163
2022-08-09T08:14:19.000Z,163
2022-08-09T08:15:36.000Z,168
2022-08-09T08:16:52.000Z,168
2022-08-09T08:18:08.000Z,168
2022-08-09T08:20:41.000Z,174
2022-08-09T08:21:57.000Z,174
2022-08-09T08:23:12.000Z,180
2022-08-09T08:24:28.000Z,180
2022-08-09T08:25:45.000Z,180
2022-08-09T08:27:01.000Z,185
2022-08-09T08:28:17.000Z,185
2022-08-09T08:29:33.000Z,191
2022-08-09T08:30:50.000Z,196
2022-08-09T08:32:06.000Z,208
2022-08-09T08:33:22.000Z,213
2022-08-09T08:34:37.000Z,213
2022-08-09T08:35:53.000Z,219
2022-08-09T08:37:09.000Z,219
2022-08-09T08:38:25.000Z,225
2022-08-09T08:39:41.000Z,225
2022-08-09T08:40:57.000Z,230
2022-08-09T08:42:14.000Z,230
2022-08-09T08:43:30.000Z,230
2022-08-09T08:44:46.000Z,230
2022-08-09T08:46:02.000Z,230
2022-08-09T08:47:19.000Z,236
2022-08-09T08:48:34.000Z,236
2022-08-09T08:49:49.000Z,236
2022-08-09T08:51:05.000Z,236
2022-08-09T08:52:22.000Z,236
2022-08-09T08:53:38.000Z,236
2022-08-09T08:54:54.000Z,241
2022-08-09T08:56:10.000Z,241
2022-08-09T08:58:43.000Z,241
2022-08-09T08:59:59.000Z,241
2022-08-09T09:01:15.000Z,241
2022-08-09T09:02:31.000Z,247
2022-08-09T09:03:48.000Z,247
2022-08-09T09:05:04.000Z,253
2022-08-09T09:06:19.000Z,247
2022-08-09T09:07:35.000Z,247
2022-08-09T09:08:52.000Z,247
2022-08-09T09:10:08.000Z,247
2022-08-09T09:11:24.000Z,253
2022-08-09T09:12:40.000Z,253
2022-08-09T09:15:13.000Z,253
2022-08-09T09:16:29.000Z,253
2022-08-09T09:17:45.000Z,253
2022-08-09T09:19:02.000Z,253
2022-08-09T09:20:18.000Z,253
2022-08-09T09:21:34.000Z,253
2022-08-09T09:22:49.000Z,253
2022-08-09T09:24:05.000Z,253
2022-08-09T09:25:22.000Z,253
2022-08-09T09:26:38.000Z,253
2022-08-09T09:27:54.000Z,253
2022-08-09T09:30:27.000Z,253
2022-08-09T09:31:43.000Z,253
2022-08-09T09:32:59.000Z,258
2022-08-09T09:34:15.000Z,258
2022-08-09T09:36:48.000Z,258
2022-08-09T09:38:03.000Z,264
2022-08-09T09:39:18.000Z,253
2022-08-09T09:40:35.000Z,264
2022-08-09T09:41:51.000Z,264
2022-08-09T09:43:07.000Z,264
2022-08-09T09:44:23.000Z,264
2022-08-09T09:45:39.000Z,270
2022-08-09T09:49:28.000Z,270
2022-08-09T09:50:44.000Z,275
2022-08-09T09:52:01.000Z,275
2022-08-09T09:53:17.000Z,275
2022-08-09T09:54:32.000Z,275
2022-08-09T09:55:47.000Z,275
2022-08-09T09:57:04.000Z,270
2022-08-09T09:58:20.000Z,275
2022-08-09T09:59:36.000Z,275
2022-08-09T10:00:52.000Z,275
2022-08-09T10:02:09.000Z,275
2022-08-09T10:03:25.000Z,275
2022-08-09T10:04:41.000Z,275
2022-08-09T10:05:57.000Z,275
2022-08-09T10:07:13.000Z,275
2022-08-09T10:08:29.000Z,275
2022-08-09T10:09:44.000Z,275
2022-08-09T10:11:00.000Z,281
2022-08-09T10:12:16.000Z,281
2022-08-09T10:14:49.000Z,281
2022-08-09T10:16:05.000Z,281
2022-08-09T10:17:21.000Z,281
2022-08-09T10:18:38.000Z,281
2022-08-09T10:19:54.000Z,281
2022-08-09T10:21:10.000Z,281
2022-08-09T10:22:26.000Z,281
2022-08-09T10:23:43.000Z,281
2022-08-09T10:24:59.000Z,281
2022-08-09T10:26:14.000Z,281
2022-08-09T10:27:30.000Z,281
2022-08-09T10:28:46.000Z,281
2022-08-09T10:30:03.000Z,281
2022-08-09T10:31:19.000Z,286
2022-08-09T10:32:35.000Z,281
2022-08-09T10:33:51.000Z,281
2022-08-09T10:35:08.000Z,286
2022-08-09T10:36:23.000Z,286
2022-08-09T10:37:38.000Z,286
2022-08-09T10:38:54.000Z,286
2022-08-09T10:40:11.000Z,286
2022-08-09T10:41:27.000Z,286
2022-08-09T10:42:43.000Z,292
2022-08-09T10:43:59.000Z,286
2022-08-09T10:45:16.000Z,292
2022-08-09T10:46:32.297Z,292
2022-08-09T10:47:48.000Z,292
2022-08-09T10:49:04.000Z,292
2022-08-09T10:50:20.000Z,292
2022-08-09T10:51:36.000Z,292
2022-08-09T10:52:52.000Z,292
2022-08-09T10:54:08.000Z,292
2022-08-09T10:55:24.000Z,286
2022-08-09T10:56:41.000Z,292
2022-08-09T10:57:57.000Z,292
2022-08-09T10:59:13.000Z,292
2022-08-09T11:00:29.000Z,292
2022-08-09T11:01:46.000Z,292
2022-08-09T11:03:02.000Z,286
2022-08-09T11:04:18.000Z,286
2022-08-09T11:05:34.000Z,286
2022-08-09T11:06:51.000Z,286
2022-08-09T11:08:06.000Z,286
2022-08-09T11:09:22.000Z,286
2022-08-09T11:10:38.000Z,286
2022-08-09T11:11:54.000Z,286
2022-08-09T11:13:11.000Z,281
2022-08-09T11:14:27.000Z,281
2022-08-09T11:15:43.000Z,281
2022-08-09T11:18:16.000Z,275
2022-08-09T11:19:32.000Z,258
2022-08-09T11:20:48.000Z,275
2022-08-09T11:22:04.000Z,281
2022-08-09T11:23:21.000Z,275
2022-08-09T11:24:36.000Z,270
2022-08-09T11:25:52.000Z,270
2022-08-09T11:27:08.000Z,264
2022-08-09T11:28:25.000Z,264
2022-08-09T11:29:41.000Z,258
2022-08-09T11:30:57.000Z,258
2022-08-09T11:32:13.000Z,258
2022-08-09T11:33:29.000Z,258
2022-08-09T11:34:46.000Z,258
2022-08-09T11:36:02.000Z,258
2022-08-09T11:37:18.000Z,258
2022-08-09T11:38:34.000Z,253
2022-08-09T11:39:51.000Z,253
2022-08-09T11:41:06.000Z,247
2022-08-09T11:42:22.000Z,241
2022-08-09T11:43:38.000Z,241
2022-08-09T11:44:55.000Z,236
2022-08-09T11:46:11.000Z,236
2022-08-09T11:47:27.000Z,230
2022-08-09T11:48:43.000Z,230
2022-08-09T11:50:00.000Z,225
2022-08-09T11:51:16.000Z,225
2022-08-09T11:52:32.000Z,225
2022-08-09T11:53:48.000Z,219
2022-08-09T11:56:21.000Z,219
2022-08-09T11:57:36.000Z,219
2022-08-09T11:58:52.000Z,219
2022-08-09T12:00:08.000Z,219
2022-08-09T12:01:25.000Z,219
2022-08-09T12:02:41.000Z,219
2022-08-09T12:03:57.000Z,219
2022-08-09T12:05:13.000Z,219
2022-08-09T12:09:02.000Z,219
2022-08-09T12:10:17.000Z,219
2022-08-09T12:11:33.000Z,219
2022-08-09T12:12:49.000Z,225
2022-08-09T12:14:05.000Z,219
2022-08-09T12:15:21.000Z,219
2022-08-09T12:16:37.000Z,219
2022-08-09T12:17:54.000Z,219
2022-08-09T12:19:10.000Z,219
2022-08-09T12:20:26.000Z,219
2022-08-09T12:21:42.000Z,219
2022-08-09T12:22:59.000Z,219
2022-08-09T12:24:14.000Z,219
2022-08-09T12:25:29.000Z,219
2022-08-09T12:26:45.000Z,219
2022-08-09T12:28:02.000Z,225
2022-08-09T12:29:18.000Z,225
2022-08-09T12:30:34.000Z,225
2022-08-09T12:31:50.000Z,225
2022-08-09T12:34:23.000Z,225
2022-08-09T12:35:39.000Z,225
2022-08-09T12:36:55.000Z,225
2022-08-09T12:38:12.000Z,225
2022-08-09T12:39:28.000Z,225
2022-08-09T12:40:44.000Z,225
2022-08-09T12:41:59.000Z,225
2022-08-09T12:43:15.000Z,225
2022-08-09T12:44:32.000Z,225
2022-08-09T12:47:04.000Z,225
2022-08-09T12:48:19.000Z,225
2022-08-09T12:49:35.000Z,225
2022-08-09T12:52:07.000Z,225
2022-08-09T12:53:23.000Z,225
2022-08-09T12:54:40.000Z,225
2022-08-09T12:55:56.000Z,225
2022-08-09T12:57:12.000Z,225
2022-08-09T12:59:45.000Z,225
2022-08-09T13:01:01.000Z,225
2022-08-09T13:03:33.000Z,225
2022-08-09T13:04:49.000Z,219
2022-08-09T13:06:05.000Z,219
2022-08-09T13:07:20.000Z,219
2022-08-09T13:08:36.000Z,219
2022-08-09T13:11:09.000Z,219
2022-08-09T13:12:25.000Z,219
2022-08-09T13:13:41.000Z,213
2022-08-09T13:14:57.000Z,213
2022-08-09T13:16:14.000Z,213
2022-08-09T13:17:30.000Z,213
2022-08-09T13:18:46.000Z,213
2022-08-09T13:20:02.000Z,213
2022-08-09T13:21:19.000Z,208
2022-08-09T13:22:35.000Z,208
2022-08-09T13:25:06.000Z,208
2022-08-09T13:26:22.000Z,208
2022-08-09T13:27:39.000Z,208
2022-08-09T13:28:55.000Z,208
2022-08-09T13:30:11.000Z,208
2022-08-09T13:31:27.000Z,202
2022-08-09T13:32:44.000Z,202
2022-08-09T13:34:00.000Z,202
2022-08-09T13:35:16.000Z,202
2022-08-09T13:36:32.000Z,202
2022-08-09T13:37:48.000Z,202
2022-08-09T13:39:03.000Z,202
2022-08-09T13:40:19.000Z,202
2022-08-09T13:41:35.000Z,202
2022-08-09T13:42:52.000Z,196
2022-08-09T13:44:08.000Z,196
2022-08-09T13:45:24.000Z,196
2022-08-09T13:46:40.000Z,196
2022-08-09T13:47:56.000Z,196
2022-08-09T13:50:29.000Z,191
2022-08-09T13:51:45.000Z,191
2022-08-09T13:53:01.000Z,191
2022-08-09T13:54:18.000Z,185
2022-08-09T13:55:33.000Z,185
2022-08-09T13:58:05.000Z,180
2022-08-09T13:59:21.000Z,180
2022-08-09T14:00:36.000Z,174
2022-08-09T14:03:08.000Z,174
2022-08-09T14:04:25.000Z,174
2022-08-09T14:05:41.000Z,168
2022-08-09T14:06:57.000Z,168
2022-08-09T14:08:13.000Z,168
2022-08-09T14:09:30.000Z,168
2022-08-09T14:10:46.000Z,168
2022-08-09T14:12:02.000Z,168
2022-08-09T14:13:18.000Z,163
2022-08-09T14:14:34.000Z,163
2022-08-09T14:15:51.000Z,163
2022-08-09T14:17:06.000Z,157
2022-08-09T14:19:38.000Z,157
2022-08-09T14:20:55.000Z,151
2022-08-09T14:22:11.000Z,151
2022-08-09T14:23:27.000Z,146
2022-08-09T14:24:43.000Z,146
2022-08-09T14:26:00.000Z,146
2022-08-09T14:28:32.000Z,140
2022-08-09T14:29:48.000Z,140
2022-08-09T14:31:04.000Z,135
2022-08-09T14:32:21.000Z,135
2022-08-09T14:33:36.000Z,135
2022-08-09T14:34:52.000Z,135
2022-08-09T14:36:08.000Z,129
2022-08-09T14:37:25.000Z,129
2022-08-09T14:38:41.000Z,129
2022-08-09T14:41:13.000Z,123
2022-08-09T14:42:30.000Z,123
2022-08-09T14:43:46.000Z,123
2022-08-09T14:45:02.000Z,123
2022-08-09T14:46:18.000Z,118
2022-08-09T14:47:35.000Z,118
2022-08-09T14:50:07.000Z,118
2022-08-09T14:51:22.000Z,118
2022-08-09T14:55:11.000Z,112
2022-08-09T14:56:27.000Z,112
2022-08-09T14:57:43.000Z,112
2022-08-09T14:59:00.000Z,112
2022-08-09T15:00:16.000Z,106
2022-08-09T15:01:32.000Z,106
2022-08-09T15:04:05.000Z,106
2022-08-09T15:05:21.000Z,106
2022-08-09T15:06:36.000Z,106
2022-08-09T15:07:52.000Z,106
2022-08-09T15:09:09.000Z,106
2022-08-09T15:10:25.000Z,106
2022-08-09T15:11:41.000Z,106
2022-08-09T15:12:57.000Z,106
2022-08-09T15:14:13.000Z,106
2022-08-09T15:15:30.000Z,106
2022-08-09T15:16:46.000Z,106
2022-08-09T15:19:18.000Z,101
2022-08-09T15:20:35.000Z,101
2022-08-09T15:21:51.000Z,101
2022-08-09T15:23:06.000Z,101
2022-08-09T15:24:22.000Z,101
2022-08-09T15:25:39.000Z,101
2022-08-09T15:26:55.000Z,101
2022-08-09T15:28:11.000Z,101
2022-08-09T15:29:27.000Z,95
2022-08-09T15:31:59.000Z,95
2022-08-09T15:33:14.000Z,95
2022-08-09T15:34:30.000Z,95
2022-08-09T15:35:46.000Z,95
2022-08-09T15:37:03.000Z,95
2022-08-09T15:38:19.000Z,95
2022-08-09T15:39:35.000Z,95
2022-08-09T15:40:51.000Z,95
2022-08-09T15:42:08.000Z,95
2022-08-09T15:43:24.000Z,90
2022-08-09T15:44:40.000Z,90
2022-08-09T15:45:55.000Z,90
2022-08-09T15:47:11.000Z,90
2022-08-09T15:48:27.000Z,90
2022-08-09T15:49:43.000Z,90
2022-08-09T15:50:59.000Z,90
2022-08-09T15:52:16.000Z,90
2022-08-09T15:53:32.000Z,90
2022-08-09T15:54:48.000Z,90
2022-08-09T15:57:21.000Z,84
2022-08-09T15:58:37.000Z,84
2022-08-09T15:59:53.000Z,84
2022-08-09T16:01:09.000Z,84
2022-08-09T16:02:25.000Z,84
2022-08-09T16:03:41.000Z,84
2022-08-09T16:04:57.000Z,84
2022-08-09T16:06:13.000Z,84
2022-08-09T16:07:29.000Z,84
2022-08-09T16:10:02.000Z,78
2022-08-09T16:11:17.000Z,78
2022-08-09T16:12:32.000Z,78
2022-08-09T16:13:49.000Z,78
2022-08-09T16:15:05.000Z,78
2022-08-09T16:16:21.000Z,78
2022-08-09T16:17:37.000Z,78
2022-08-09T16:18:54.000Z,78
2022-08-09T16:20:10.000Z,78
2022-08-09T16:21:26.000Z,78
2022-08-09T16:22:42.000Z,78
2022-08-09T16:23:58.000Z,78
2022-08-09T16:25:14.000Z,78
2022-08-09T16:26:30.000Z,78
2022-08-09T16:27:45.000Z,73
2022-08-09T16:29:01.000Z,73
2022-08-09T16:30:18.000Z,73
2022-08-09T16:31:34.000Z,73
2022-08-09T16:32:50.000Z,73
2022-08-09T16:35:23.000Z,73
2022-08-09T16:36:39.000Z,73
2022-08-09T16:37:55.000Z,73
2022-08-09T16:39:11.000Z,73
2022-08-09T16:40:28.000Z,73
2022-08-09T16:41:44.000Z,73
2022-08-09T16:44:16.000Z,67
2022-08-09T16:45:31.000Z,67
2022-08-09T16:48:04.000Z,67
2022-08-09T16:49:19.000Z,67
2022-08-09T16:50:35.000Z,67
2022-08-09T16:51:52.000Z,67
2022-08-09T16:53:08.000Z,67
2022-08-09T16:54:24.000Z,67
2022-08-09T16:55:40.000Z,61
2022-08-09T16:56:57.000Z,61
2022-08-09T16:58:13.000Z,61
2022-08-09T16:59:29.000Z,61
2022-08-09T17:00:45.000Z,61
2022-08-09T17:02:01.000Z,61
2022-08-09T17:03:16.000Z,61
2022-08-09T17:04:32.000Z,61
2022-08-09T17:05:48.000Z,61
2022-08-09T17:07:05.000Z,56
2022-08-09T17:08:21.000Z,56
2022-08-09T17:09:37.000Z,56
2022-08-09T17:10:53.000Z,56
2022-08-09T17:13:26.000Z,56
2022-08-09T17:14:42.000Z,50
2022-08-09T17:15:58.000Z,50
2022-08-09T17:17:14.000Z,50
2022-08-09T17:19:47.000Z,50
2022-08-09T17:21:02.000Z,50
2022-08-09T17:22:17.000Z,50
2022-08-09T17:23:34.000Z,50
2022-08-09T17:26:06.000Z,50
2022-08-09T17:28:39.000Z,50
2022-08-09T17:29:55.000Z,50
2022-08-09T17:31:11.000Z,50
2022-08-09T17:32:27.000Z,50
2022-08-09T17:33:43.000Z,50
2022-08-09T17:35:00.000Z,50
2022-08-09T17:36:16.000Z,45
2022-08-09T17:37:32.000Z,45
2022-08-09T17:38:47.000Z,45
2022-08-09T17:40:04.000Z,45
2022-08-09T17:41:20.000Z,45
2022-08-09T17:42:36.000Z,45
2022-08-09T17:43:52.000Z,39
2022-08-09T17:45:09.000Z,45
2022-08-09T17:46:25.000Z,39
2022-08-09T17:47:41.000Z,39
2022-08-09T17:48:57.000Z,39
2022-08-09T17:50:14.000Z,39
2022-08-09T17:51:30.000Z,39
2022-08-09T17:52:45.000Z,39
2022-08-09T17:54:00.000Z,39
2022-08-09T17:55:16.000Z,39
2022-08-09T17:56:33.000Z,39
2022-08-09T17:57:49.000Z,33
2022-08-09T17:59:05.000Z,33
2022-08-09T18:00:21.000Z,33
2022-08-09T18:01:38.000Z,33
2022-08-09T18:04:10.000Z,33
2022-08-09T18:05:26.000Z,33
2022-08-09T18:06:43.000Z,33
2022-08-09T18:07:59.000Z,33
2022-08-09T18:09:15.000Z,28
2022-08-09T18:10:30.000Z,28
2022-08-09T18:11:47.000Z,28
2022-08-09T18:14:19.000Z,28
2022-08-09T18:15:34.000Z,28
2022-08-09T18:16:50.000Z,28
2022-08-09T18:18:06.000Z,22
2022-08-09T18:19:22.000Z,22
2022-08-09T18:20:38.000Z,22
2022-08-09T18:21:54.000Z,22
2022-08-09T18:23:11.000Z,22
2022-08-09T18:24:27.000Z,22
2022-08-09T18:25:43.000Z,22
2022-08-09T18:26:59.000Z,22
2022-08-09T18:28:16.000Z,22
2022-08-09T18:29:31.000Z,16
2022-08-09T18:30:46.000Z,16
2022-08-09T18:32:02.000Z,16
2022-08-09T18:33:19.000Z,16
2022-08-09T18:34:35.000Z,16
2022-08-09T18:35:51.000Z,16
2022-08-09T18:37:07.000Z,16
2022-08-09T18:38:24.000Z,16
2022-08-09T18:39:40.000Z,11
2022-08-09T18:42:12.000Z,11
2022-08-09T18:43:28.000Z,11
2022-08-09T18:44:45.000Z,11
2022-08-09T18:46:01.000Z,11
2022-08-09T18:47:16.000Z,11
2022-08-09T18:48:32.000Z,11
2022-08-09T18:49:49.000Z,5
2022-08-09T18:51:05.000Z,5
2022-08-09T18:52:21.000Z,5
2022-08-09T18:53:37.000Z,5
2022-08-09T18:54:54.000Z,5
2022-08-09T18:56:10.000Z,5
2022-08-09T18:57:25.000Z,5
2022-08-09T18:58:40.000Z,5
2022-08-09T18:59:57.000Z,5
2022-08-09T19:01:13.000Z,0
2022-08-09T19:02:29.000Z,0
2022-08-09T19:03:45.000Z,0
2022-08-09T19:05:01.000Z,0
2022-08-09T19:06:18.000Z,0
2022-08-09T19:07:34.000Z,0
2022-08-09T19:08:50.000Z,0
2022-08-09T19:10:06.000Z,0
2022-08-09T19:11:23.000Z,0
2022-08-09T19:12:39.000Z,0
2022-08-09T19:13:55.000Z,0
2022-08-09T19:15:10.000Z,0
2022-08-09T19:17:43.000Z,0
2022-08-09T19:20:15.000Z,0
2022-08-09T19:21:31.000Z,0
2022-08-09T19:22:46.000Z,0
2022-08-09T19:24:02.000Z,0
2022-08-09T19:25:18.000Z,0
2022-08-09T19:26:35.000Z,0
2022-08-09T19:27:51.000Z,0
2022-08-09T19:29:07.000Z,0
2022-08-09T19:30:23.000Z,0
2022-08-09T19:31:39.000Z,0
2022-08-09T19:32:56.000Z,0
2022-08-09T19:34:12.000Z,0